Bara Ar Vro — FQBA — position and weather

sailwx.info

Track history (hours):
 
Tides and Currents Weather Stations Pressure Air Temp Water Temp Dewpoint Dewpoint Depression Visibility Wind Speed Wind Dir Waves Ship Positions

Bara Ar Vro

Last reported at 2017-Sep-20 20:53 UTC. Time now 2017-Sep-21 07:10 UTC.
Position N 48°05' W 005°43'.

Length 22 m; draft 3.8 m.

Type: Fishing. MMSI: 228935000.

Date/timePositionNaut miles runAvg speedWind from/ knotsBaromVisibWave heightAir tempDewpointWater temp
2017-Sep-20 20:53N 48°05' W 005°43'7 8.0
2017-Sep-20 19:58N 48°00' W 005°35'17 7.9
2017-Sep-20 17:48N 47°48' W 005°18'5 8.7
2017-Sep-20 17:14N 47°44' W 005°13'5 6.1
2017-Sep-20 16:20N 47°42' W 005°05'3 8.3
2017-Sep-20 16:00N 47°42' W 005°01'4 8.3
2017-Sep-20 15:29N 47°42' W 004°55'5 8.7
2017-Sep-20 14:53N 47°43' W 004°47'9 8.8
2017-Sep-20 13:54N 47°45' W 004°34'4 9.0
2017-Sep-20 13:29N 47°45' W 004°29'4 8.8
2017-Sep-20 13:00N 47°46' W 004°22'4 2.6
2017-Sep-20 11:25N 47°48' W 004°17'0 0.0
2017-Sep-20 06:34N 47°48' W 004°17'0 0.1
2017-Sep-20 06:27N 47°48' W 004°17'0 0.0
2017-Sep-20 05:56N 47°48' W 004°17'0 0.0
2017-Sep-20 05:25N 47°48' W 004°17'0 0.0
2017-Sep-20 04:59N 47°48' W 004°17'0 0.0
2017-Sep-20 04:26N 47°48' W 004°17'0 0.0
2017-Sep-20 03:59N 47°48' W 004°17'0 0.0
2017-Sep-20 03:30N 47°48' W 004°17'0 0.0
2017-Sep-20 02:47N 47°48' W 004°17'0 0.0
2017-Sep-20 02:30N 47°48' W 004°17'0 0.0
2017-Sep-20 01:37N 47°48' W 004°17'0 0.0
2017-Sep-20 01:30N 47°48' W 004°17'0 0.0
2017-Sep-20 01:00N 47°48' W 004°17'0 0.0
2017-Sep-20 00:26N 47°48' W 004°17'0 0.0
2017-Sep-19 23:50N 47°48' W 004°17'0 0.0
2017-Sep-19 23:26N 47°48' W 004°17'0 0.0
2017-Sep-19 22:58N 47°48' W 004°17'0 0.0
2017-Sep-19 20:42N 47°48' W 004°17'0 0.0
2017-Sep-19 20:01N 47°48' W 004°17'  
2017-Sep-15 06:58N 47°46' W 004°21'22 4.3
2017-Sep-15 01:53N 47°53' W 004°52'11 5.4
2017-Sep-14 23:53N 47°56' W 005°07'5 5.0
2017-Sep-14 22:53N 47°58' W 005°14'5 5.2
2017-Sep-14 21:58N 47°60' W 005°20'6 5.4
2017-Sep-14 20:48N 48°02' W 005°29'5 5.6
2017-Sep-14 19:58N 48°04' W 005°36'7 5.4
2017-Sep-14 18:38N 48°06' W 005°46'  
Track history (hours):
 
Tides and Currents Weather Stations Pressure Air Temp Water Temp Dewpoint Dewpoint Depression Visibility Wind Speed Wind Dir Waves Ship Positions

Bara Ar Vro

Last reported at 2017-Sep-20 20:53 UTC. Time now 2017-Sep-21 07:10 UTC.
Position N 48°05' W 005°43'.

Length 22 m; draft 3.8 m.

Type: Fishing. MMSI: 228935000.

Date/timePositionNaut miles runAvg speedWind from/ knotsBaromVisibWave heightAir tempDewpointWater temp
2017-Sep-20 20:53N 48°05' W 005°43'7 8.0
2017-Sep-20 19:58N 48°00' W 005°35'17 7.9
2017-Sep-20 17:48N 47°48' W 005°18'5 8.7
2017-Sep-20 17:14N 47°44' W 005°13'5 6.1
2017-Sep-20 16:20N 47°42' W 005°05'3 8.3
2017-Sep-20 16:00N 47°42' W 005°01'4 8.3
2017-Sep-20 15:29N 47°42' W 004°55'5 8.7
2017-Sep-20 14:53N 47°43' W 004°47'9 8.8
2017-Sep-20 13:54N 47°45' W 004°34'4 9.0
2017-Sep-20 13:29N 47°45' W 004°29'4 8.8
2017-Sep-20 13:00N 47°46' W 004°22'4 2.6
2017-Sep-20 11:25N 47°48' W 004°17'0 0.0
2017-Sep-20 06:34N 47°48' W 004°17'0 0.1
2017-Sep-20 06:27N 47°48' W 004°17'0 0.0
2017-Sep-20 05:56N 47°48' W 004°17'0 0.0
2017-Sep-20 05:25N 47°48' W 004°17'0 0.0
2017-Sep-20 04:59N 47°48' W 004°17'0 0.0
2017-Sep-20 04:26N 47°48' W 004°17'0 0.0
2017-Sep-20 03:59N 47°48' W 004°17'0 0.0
2017-Sep-20 03:30N 47°48' W 004°17'0 0.0
2017-Sep-20 02:47N 47°48' W 004°17'0 0.0
2017-Sep-20 02:30N 47°48' W 004°17'0 0.0
2017-Sep-20 01:37N 47°48' W 004°17'0 0.0
2017-Sep-20 01:30N 47°48' W 004°17'0 0.0
2017-Sep-20 01:00N 47°48' W 004°17'0 0.0
2017-Sep-20 00:26N 47°48' W 004°17'0 0.0
2017-Sep-19 23:50N 47°48' W 004°17'0 0.0
2017-Sep-19 23:26N 47°48' W 004°17'0 0.0
2017-Sep-19 22:58N 47°48' W 004°17'0 0.0
2017-Sep-19 20:42N 47°48' W 004°17'0 0.0
2017-Sep-19 20:01N 47°48' W 004°17'  
2017-Sep-15 06:58N 47°46' W 004°21'22 4.3
2017-Sep-15 01:53N 47°53' W 004°52'11 5.4
2017-Sep-14 23:53N 47°56' W 005°07'5 5.0
2017-Sep-14 22:53N 47°58' W 005°14'5 5.2
2017-Sep-14 21:58N 47°60' W 005°20'6 5.4
2017-Sep-14 20:48N 48°02' W 005°29'5 5.6
2017-Sep-14 19:58N 48°04' W 005°36'7 5.4
2017-Sep-14 18:38N 48°06' W 005°46'  

Dump ship's entire track history